createdAt,value
2022-10-29T00:00:17.771Z,14.70
2022-10-29T00:02:45.502Z,14.63
2022-10-29T00:05:13.235Z,14.60
2022-10-29T00:07:42.248Z,14.69
2022-10-29T00:10:10.678Z,14.84
2022-10-29T00:12:38.416Z,14.45
2022-10-29T00:15:06.801Z,14.30
2022-10-29T00:17:35.362Z,13.95
2022-10-29T00:20:03.316Z,13.89
2022-10-29T00:22:31.226Z,13.94
2022-10-29T00:25:00.551Z,13.76
2022-10-29T00:27:28.390Z,13.97
2022-10-29T00:29:56.236Z,14.10
2022-10-29T00:32:24.158Z,14.17
2022-10-29T00:34:54.193Z,14.15
2022-10-29T00:37:21.870Z,14.31
2022-10-29T00:39:49.618Z,14.33
2022-10-29T00:42:20.915Z,14.08
2022-10-29T00:44:48.717Z,14.10
2022-10-29T00:47:24.135Z,14.12
2022-10-29T00:49:57.318Z,13.86
2022-10-29T00:52:28.618Z,14.12
2022-10-29T00:54:57.395Z,14.26
2022-10-29T00:57:30.664Z,14.29
2022-10-29T00:59:58.510Z,14.16
2022-10-29T01:02:27.486Z,14.12
2022-10-29T01:04:55.311Z,14.43
2022-10-29T01:07:23.653Z,14.59
2022-10-29T01:09:51.909Z,14.66
2022-10-29T01:12:38.966Z,14.54
2022-10-29T01:15:14.105Z,14.67
2022-10-29T01:17:51.541Z,14.80
2022-10-29T01:20:47.529Z,14.81
2022-10-29T01:23:37.601Z,14.60
2022-10-29T01:26:30.854Z,14.70
2022-10-29T01:29:19.203Z,14.80
2022-10-29T01:31:54.264Z,14.82
2022-10-29T01:34:30.595Z,14.73
2022-10-29T01:37:03.053Z,14.87
2022-10-29T01:39:41.633Z,14.91
2022-10-29T01:42:15.280Z,14.93
2022-10-29T01:44:47.179Z,14.98
2022-10-29T01:47:20.161Z,15.01
2022-10-29T01:49:52.536Z,15.02
2022-10-29T01:52:23.959Z,14.97
2022-10-29T01:54:53.991Z,14.97
2022-10-29T01:57:29.867Z,14.71
2022-10-29T02:00:01.189Z,14.41
2022-10-29T02:02:43.324Z,14.18
2022-10-29T02:05:29.955Z,14.51
2022-10-29T02:08:05.609Z,14.50
2022-10-29T02:10:36.749Z,14.70
2022-10-29T02:13:08.440Z,14.55
2022-10-29T02:15:39.034Z,14.49
2022-10-29T02:18:09.428Z,14.45
2022-10-29T02:20:42.899Z,14.58
2022-10-29T02:23:11.173Z,14.68
2022-10-29T02:25:39.063Z,14.67
2022-10-29T02:28:07.285Z,14.80
2022-10-29T02:30:35.274Z,14.86
2022-10-29T02:33:03.056Z,14.85
2022-10-29T02:35:32.281Z,14.80
2022-10-29T02:38:00.069Z,14.90
2022-10-29T02:40:27.858Z,14.95
2022-10-29T02:42:56.116Z,15.03
2022-10-29T02:45:24.118Z,15.09
2022-10-29T02:47:51.806Z,15.05
2022-10-29T02:50:19.469Z,15.06
2022-10-29T02:52:48.492Z,14.73
2022-10-29T02:55:16.409Z,14.63
2022-10-29T02:57:44.532Z,14.60
2022-10-29T03:00:16.090Z,14.72
2022-10-29T03:02:43.852Z,14.86
2022-10-29T03:05:14.610Z,14.91
2022-10-29T03:07:42.465Z,14.85
2022-10-29T03:10:13.837Z,14.80
2022-10-29T03:12:41.580Z,15.04
2022-10-29T03:15:10.032Z,14.90
2022-10-29T03:17:37.713Z,14.91
2022-10-29T03:20:06.526Z,14.89
2022-10-29T03:22:34.228Z,14.84
2022-10-29T03:25:01.966Z,14.82
2022-10-29T03:27:31.015Z,14.88
2022-10-29T03:29:58.969Z,14.99
2022-10-29T03:32:26.785Z,14.90
2022-10-29T03:34:57.458Z,15.06
2022-10-29T03:37:27.678Z,15.13
2022-10-29T03:39:55.592Z,15.10
2022-10-29T03:42:23.263Z,14.84
2022-10-29T03:44:52.368Z,15.08
2022-10-29T03:47:20.261Z,14.94
2022-10-29T03:49:47.968Z,15.07
2022-10-29T03:52:15.654Z,15.16
2022-10-29T03:54:43.515Z,15.08
2022-10-29T03:57:13.586Z,15.14
2022-10-29T03:59:41.283Z,15.21
2022-10-29T04:02:12.676Z,14.84
2022-10-29T04:04:40.595Z,14.76
2022-10-29T04:07:08.475Z,15.02
2022-10-29T04:09:36.245Z,15.12
2022-10-29T04:12:04.476Z,15.22
2022-10-29T04:14:32.318Z,15.09
2022-10-29T04:17:02.460Z,15.00
2022-10-29T04:19:31.657Z,15.03
2022-10-29T04:24:12.167Z,15.17
2022-10-29T04:28:41.790Z,14.97
2022-10-29T04:30:22.921Z,15.10
2022-10-29T04:32:51.017Z,15.10
2022-10-29T04:35:20.166Z,15.03
2022-10-29T04:37:50.024Z,14.99
2022-10-29T04:40:18.126Z,14.77
2022-10-29T04:42:45.768Z,14.58
2022-10-29T04:45:13.810Z,14.58
2022-10-29T04:47:41.491Z,14.49
2022-10-29T04:50:09.906Z,14.32
2022-10-29T04:52:38.989Z,14.32
2022-10-29T04:55:07.122Z,14.20
2022-10-29T04:57:34.916Z,14.41
2022-10-29T05:00:02.658Z,14.63
2022-10-29T05:02:30.356Z,14.83
2022-10-29T05:04:58.137Z,14.90
2022-10-29T05:07:28.181Z,14.73
2022-10-29T05:09:57.287Z,14.47
2022-10-29T05:12:25.037Z,14.23
2022-10-29T05:14:52.798Z,14.38
2022-10-29T05:17:20.757Z,14.54
2022-10-29T05:19:48.453Z,14.65
2022-10-29T05:22:16.205Z,14.32
2022-10-29T05:24:46.285Z,14.32
2022-10-29T05:27:15.659Z,14.34
2022-10-29T05:29:43.627Z,14.45
2022-10-29T05:32:11.349Z,14.30
2022-10-29T05:34:42.026Z,14.42
2022-10-29T05:37:12.038Z,14.34
2022-10-29T05:39:39.961Z,13.94
2022-10-29T05:42:07.718Z,14.24
2022-10-29T05:44:36.789Z,14.10
2022-10-29T05:47:07.527Z,14.10
2022-10-29T05:49:35.565Z,14.09
2022-10-29T05:52:03.279Z,13.99
2022-10-29T05:54:31.028Z,14.03
2022-10-29T05:57:01.044Z,14.08
2022-10-29T05:59:32.729Z,14.22
2022-10-29T06:02:03.202Z,14.20
2022-10-29T06:04:31.090Z,14.22
2022-10-29T06:06:58.837Z,14.17
2022-10-29T06:09:26.594Z,14.11
2022-10-29T06:11:55.828Z,13.79
2022-10-29T06:14:23.809Z,13.85
2022-10-29T06:16:51.638Z,14.13
2022-10-29T06:19:20.942Z,14.24
2022-10-29T06:21:48.762Z,14.27
2022-10-29T06:24:16.506Z,14.30
2022-10-29T06:26:44.319Z,14.24
2022-10-29T06:29:12.139Z,14.36
2022-10-29T06:31:39.891Z,14.24
2022-10-29T06:34:07.647Z,14.38
2022-10-29T06:36:37.003Z,14.27
2022-10-29T06:39:04.910Z,14.36
2022-10-29T06:41:32.791Z,14.47
2022-10-29T06:44:00.810Z,14.50
2022-10-29T06:46:28.639Z,14.17
2022-10-29T06:48:56.447Z,14.08
2022-10-29T06:51:24.361Z,14.05
2022-10-29T06:53:54.684Z,13.97
2022-10-29T06:56:22.676Z,13.81
2022-10-29T06:58:50.475Z,13.98
2022-10-29T07:01:18.372Z,14.26
2022-10-29T07:03:46.159Z,14.59
2022-10-29T07:06:13.862Z,14.71
2022-10-29T07:08:41.709Z,14.75
2022-10-29T07:11:10.801Z,14.84
2022-10-29T07:13:40.729Z,14.91
2022-10-29T07:16:08.975Z,15.27
2022-10-29T07:18:36.868Z,15.57
2022-10-29T07:21:05.678Z,15.45
2022-10-29T07:23:33.421Z,15.69
2022-10-29T07:26:01.243Z,15.89
2022-10-29T07:28:30.430Z,16.12
2022-10-29T07:31:01.987Z,16.11
2022-10-29T07:33:30.821Z,16.42
2022-10-29T07:36:00.514Z,16.37
2022-10-29T07:38:28.872Z,16.69
2022-10-29T07:40:56.786Z,16.76
2022-10-29T07:43:27.132Z,16.69
2022-10-29T07:45:56.318Z,17.06
2022-10-29T07:48:24.105Z,17.40
2022-10-29T07:50:51.799Z,17.74
2022-10-29T07:53:19.804Z,17.87
2022-10-29T07:55:54.154Z,17.98
2022-10-29T07:58:21.909Z,18.38
2022-10-29T08:00:50.182Z,17.89
2022-10-29T08:03:19.431Z,18.07
2022-10-29T08:05:55.318Z,17.95
2022-10-29T08:08:24.480Z,17.68
2022-10-29T08:10:52.370Z,17.44
2022-10-29T08:13:20.353Z,17.30
2022-10-29T08:15:48.252Z,17.35
2022-10-29T08:18:18.203Z,17.51
2022-10-29T08:20:47.726Z,17.64
2022-10-29T08:23:16.061Z,17.47
2022-10-29T08:25:43.987Z,17.50
2022-10-29T08:28:13.598Z,17.54
2022-10-29T08:30:43.977Z,17.63
2022-10-29T08:33:12.258Z,17.74
2022-10-29T08:35:40.239Z,17.94
2022-10-29T08:38:09.408Z,18.10
2022-10-29T08:40:49.273Z,18.39
2022-10-29T08:43:46.087Z,18.38
2022-10-29T08:46:21.799Z,18.46
2022-10-29T08:48:54.431Z,18.47
2022-10-29T08:51:25.690Z,18.67
2022-10-29T08:56:50.237Z,18.78
2022-10-29T08:59:21.427Z,18.93
2022-10-29T09:01:49.910Z,18.92
2022-10-29T09:04:26.479Z,19.33
2022-10-29T09:07:15.949Z,19.64
2022-10-29T09:09:48.147Z,20.17
2022-10-29T09:12:38.620Z,20.22
2022-10-29T09:15:24.028Z,20.45
2022-10-29T09:18:04.241Z,20.17
2022-10-29T09:20:45.174Z,20.49
2022-10-29T09:23:23.242Z,20.78
2022-10-29T09:25:57.413Z,21.19
2022-10-29T09:28:33.964Z,21.27
2022-10-29T09:31:12.385Z,21.14
2022-10-29T09:33:41.041Z,21.10
2022-10-29T09:36:15.366Z,21.34
2022-10-29T09:38:53.724Z,21.38
2022-10-29T09:41:26.990Z,21.38
2022-10-29T09:44:02.120Z,21.43
2022-10-29T09:46:38.153Z,21.44
2022-10-29T09:49:22.577Z,21.81
2022-10-29T09:51:57.715Z,21.85
2022-10-29T09:54:28.114Z,22.06
2022-10-29T09:56:58.735Z,21.91
2022-10-29T09:59:33.171Z,21.99
2022-10-29T10:02:01.408Z,21.92
2022-10-29T10:04:33.263Z,22.32
2022-10-29T10:07:07.106Z,22.29
2022-10-29T10:09:55.382Z,22.49
2022-10-29T10:12:26.920Z,22.54
2022-10-29T10:15:06.382Z,23.14
2022-10-29T10:18:00.777Z,23.10
2022-10-29T10:20:37.850Z,23.27
2022-10-29T10:23:22.430Z,23.65
2022-10-29T10:25:51.285Z,23.42
2022-10-29T10:28:22.607Z,23.32
2022-10-29T10:31:14.635Z,23.67
2022-10-29T10:33:50.399Z,23.58
2022-10-29T10:36:21.989Z,23.62
2022-10-29T10:38:52.161Z,23.93
2022-10-29T10:41:25.568Z,23.84
2022-10-29T10:44:00.289Z,23.93
2022-10-29T10:46:33.070Z,24.17
2022-10-29T10:49:05.833Z,24.23
2022-10-29T10:51:35.156Z,24.53
2022-10-29T10:54:07.814Z,24.76
2022-10-29T10:56:53.602Z,24.77
2022-10-29T10:59:23.275Z,24.83
2022-10-29T11:01:52.564Z,24.68
2022-10-29T11:04:29.961Z,24.95
2022-10-29T11:07:03.750Z,24.96
2022-10-29T11:09:37.390Z,24.89
2022-10-29T11:12:10.514Z,25.55
2022-10-29T11:14:47.804Z,25.56
2022-10-29T11:17:27.437Z,25.21
2022-10-29T11:20:00.882Z,25.60
2022-10-29T11:22:33.812Z,25.52
2022-10-29T11:25:06.082Z,25.62
2022-10-29T11:27:44.047Z,26.02
2022-10-29T11:30:16.492Z,26.07
2022-10-29T11:32:57.687Z,25.97
2022-10-29T11:35:38.764Z,25.83
2022-10-29T11:38:17.141Z,26.34
2022-10-29T11:40:50.921Z,26.35
2022-10-29T11:43:21.514Z,26.76
2022-10-29T11:45:59.228Z,26.39
2022-10-29T11:48:39.490Z,26.51
2022-10-29T11:51:20.513Z,26.85
2022-10-29T11:53:57.516Z,26.53
2022-10-29T11:56:47.484Z,26.73
2022-10-29T11:59:23.772Z,26.45
2022-10-29T12:01:58.521Z,27.12
2022-10-29T12:04:30.035Z,26.96
2022-10-29T12:07:11.494Z,26.34
2022-10-29T12:09:59.246Z,27.05
2022-10-29T12:12:35.853Z,27.22
2022-10-29T12:15:13.495Z,27.03
2022-10-29T12:17:49.952Z,27.08
2022-10-29T12:20:27.720Z,26.72
2022-10-29T12:23:04.951Z,27.13
2022-10-29T12:25:43.347Z,26.96
2022-10-29T12:28:20.100Z,26.93
2022-10-29T12:31:10.408Z,27.77
2022-10-29T12:33:46.256Z,27.35
2022-10-29T12:36:21.950Z,27.06
2022-10-29T12:38:53.727Z,27.37
2022-10-29T12:41:25.495Z,26.90
2022-10-29T12:44:00.043Z,26.87
2022-10-29T12:46:35.984Z,26.79
2022-10-29T12:49:13.441Z,26.69
2022-10-29T12:51:48.865Z,26.70
2022-10-29T12:54:27.874Z,26.46
2022-10-29T12:56:56.581Z,26.73
2022-10-29T12:59:33.786Z,27.17
2022-10-29T13:02:27.082Z,27.07
2022-10-29T13:05:35.569Z,27.05
2022-10-29T13:08:18.296Z,27.15
2022-10-29T13:10:51.165Z,26.89
2022-10-29T13:13:38.793Z,27.27
2022-10-29T13:16:14.492Z,26.91
2022-10-29T13:18:50.501Z,26.83
2022-10-29T13:22:00.030Z,26.98
2022-10-29T13:24:32.117Z,26.78
2022-10-29T13:27:09.593Z,26.81
2022-10-29T13:29:46.501Z,26.89
2022-10-29T13:32:33.981Z,26.89
2022-10-29T13:35:03.315Z,26.58
2022-10-29T13:37:51.810Z,26.56
2022-10-29T13:40:41.026Z,26.42
2022-10-29T13:43:17.972Z,26.28
2022-10-29T13:50:07.691Z,26.28
2022-10-29T13:52:37.370Z,26.14
2022-10-29T13:55:08.708Z,26.20
2022-10-29T13:57:41.466Z,26.17
2022-10-29T14:00:18.591Z,26.27
2022-10-29T14:02:55.908Z,26.11
2022-10-29T14:05:28.128Z,25.48
2022-10-29T14:08:02.330Z,25.83
2022-10-29T14:10:33.999Z,26.06
2022-10-29T14:13:12.288Z,25.80
2022-10-29T14:15:40.533Z,26.05
2022-10-29T14:18:25.696Z,25.34
2022-10-29T14:20:55.965Z,25.48
2022-10-29T14:23:23.827Z,25.61
2022-10-29T14:25:52.842Z,25.52
2022-10-29T14:28:26.647Z,25.40
2022-10-29T14:31:03.651Z,25.38
2022-10-29T14:33:33.520Z,25.53
2022-10-29T14:36:08.462Z,25.28
2022-10-29T14:38:41.306Z,25.31
2022-10-29T14:41:09.847Z,25.41
2022-10-29T14:43:40.083Z,25.12
2022-10-29T14:46:21.910Z,24.97
2022-10-29T14:49:01.019Z,25.08
2022-10-29T14:51:29.042Z,24.97
2022-10-29T14:54:01.043Z,24.90
2022-10-29T14:56:34.463Z,24.90
2022-10-29T14:59:15.286Z,24.68
2022-10-29T15:01:51.698Z,24.62
2022-10-29T15:04:22.019Z,24.61
2022-10-29T15:06:50.024Z,24.49
2022-10-29T15:09:26.837Z,24.47
2022-10-29T15:12:03.446Z,24.36
2022-10-29T15:14:38.844Z,24.23
2022-10-29T15:17:12.734Z,24.00
2022-10-29T15:19:45.353Z,23.88
2022-10-29T15:22:20.284Z,23.54
2022-10-29T15:24:50.278Z,23.30
2022-10-29T15:27:18.708Z,23.12
2022-10-29T15:29:50.219Z,23.06
2022-10-29T15:32:19.315Z,23.09
2022-10-29T15:34:52.087Z,22.75
2022-10-29T15:37:26.937Z,22.87
2022-10-29T15:40:04.091Z,22.82
2022-10-29T15:42:33.737Z,22.61
2022-10-29T15:45:24.944Z,22.52
2022-10-29T15:47:54.647Z,22.45
2022-10-29T15:50:25.196Z,22.20
2022-10-29T15:52:55.705Z,22.31
2022-10-29T15:55:27.598Z,22.24
2022-10-29T15:58:01.528Z,22.02
2022-10-29T16:00:31.694Z,21.95
2022-10-29T16:03:08.261Z,21.73
2022-10-29T16:05:35.983Z,21.78
2022-10-29T16:08:04.519Z,21.73
2022-10-29T16:10:33.398Z,21.54
2022-10-29T16:13:01.214Z,21.48
2022-10-29T16:15:30.322Z,21.46
2022-10-29T16:17:58.472Z,21.20
2022-10-29T16:20:26.527Z,21.28
2022-10-29T16:22:54.407Z,21.25
2022-10-29T16:25:25.242Z,21.19
2022-10-29T16:27:53.262Z,21.21
2022-10-29T16:30:23.024Z,20.92
2022-10-29T16:32:53.091Z,20.87
2022-10-29T16:35:22.852Z,20.81
2022-10-29T16:37:51.798Z,20.59
2022-10-29T16:40:21.030Z,20.19
2022-10-29T16:42:49.098Z,20.39
2022-10-29T16:45:19.220Z,20.03
2022-10-29T16:47:50.920Z,20.20
2022-10-29T16:50:22.172Z,20.07
2022-10-29T16:52:56.651Z,20.12
2022-10-29T16:55:24.470Z,20.04
2022-10-29T16:57:52.357Z,20.23
2022-10-29T17:00:20.372Z,20.30
2022-10-29T17:02:50.666Z,20.35
2022-10-29T17:05:20.136Z,20.44
2022-10-29T17:07:48.024Z,20.40
2022-10-29T17:10:15.774Z,20.28
2022-10-29T17:12:43.628Z,20.13
2022-10-29T17:15:11.659Z,20.05
2022-10-29T17:17:42.370Z,20.19
2022-10-29T17:20:15.529Z,20.28
2022-10-29T17:22:47.135Z,20.40
2022-10-29T17:25:14.867Z,20.19
2022-10-29T17:27:43.441Z,20.13
2022-10-29T17:30:12.691Z,19.99
2022-10-29T17:32:40.449Z,20.00
2022-10-29T17:35:08.619Z,19.83
2022-10-29T17:37:36.405Z,19.65
2022-10-29T17:40:07.125Z,19.93
2022-10-29T17:42:36.401Z,20.04
2022-10-29T17:45:04.415Z,19.96
2022-10-29T17:47:32.163Z,20.04
2022-10-29T17:49:59.882Z,19.98
2022-10-29T17:52:27.591Z,19.67
2022-10-29T17:54:55.302Z,19.61
2022-10-29T17:57:24.534Z,19.47
2022-10-29T17:59:52.210Z,19.61
2022-10-29T18:02:20.011Z,19.45
2022-10-29T18:04:47.948Z,19.52
2022-10-29T18:07:15.677Z,19.39
2022-10-29T18:09:43.446Z,19.40
2022-10-29T18:12:11.137Z,19.42
2022-10-29T18:14:40.454Z,19.29
2022-10-29T18:17:08.374Z,19.11
2022-10-29T18:19:36.048Z,18.84
2022-10-29T18:22:03.726Z,18.90
2022-10-29T18:24:31.454Z,18.89
2022-10-29T18:26:59.144Z,18.88
2022-10-29T18:29:26.941Z,18.87
2022-10-29T18:31:56.034Z,19.00
2022-10-29T18:34:23.789Z,18.92
2022-10-29T18:36:53.697Z,18.97
2022-10-29T18:39:21.829Z,18.85
2022-10-29T18:41:50.195Z,18.88
2022-10-29T18:44:17.886Z,18.95
2022-10-29T18:46:45.680Z,18.93
2022-10-29T18:49:15.577Z,18.78
2022-10-29T18:51:43.448Z,18.78
2022-10-29T18:54:12.780Z,18.66
2022-10-29T18:56:40.590Z,18.44
2022-10-29T18:59:08.598Z,18.47
2022-10-29T19:01:38.790Z,18.50
2022-10-29T19:04:09.807Z,18.52
2022-10-29T19:06:39.144Z,18.63
2022-10-29T19:09:08.928Z,18.66
2022-10-29T19:11:36.927Z,18.67
2022-10-29T19:14:06.818Z,18.67
2022-10-29T19:16:35.274Z,18.64
2022-10-29T19:21:36.540Z,18.45
2022-10-29T19:24:06.927Z,18.23
2022-10-29T19:26:36.563Z,18.04
2022-10-29T19:29:06.267Z,17.93
2022-10-29T19:31:35.501Z,18.10
2022-10-29T19:34:06.014Z,18.01
2022-10-29T19:36:35.534Z,18.09
2022-10-29T19:39:04.827Z,18.13
2022-10-29T19:41:32.867Z,18.09
2022-10-29T19:44:01.762Z,18.03
2022-10-29T19:46:30.941Z,17.84
2022-10-29T19:48:59.289Z,17.84
2022-10-29T19:51:29.429Z,17.86
2022-10-29T19:54:01.425Z,17.86
2022-10-29T19:56:30.942Z,17.81
2022-10-29T19:58:58.654Z,17.77
2022-10-29T20:01:26.469Z,17.66
2022-10-29T20:03:54.339Z,17.66
2022-10-29T20:06:22.084Z,17.65
2022-10-29T20:08:49.762Z,17.66
2022-10-29T20:11:17.463Z,17.65
2022-10-29T20:13:46.629Z,17.67
2022-10-29T20:16:18.046Z,17.49
2022-10-29T20:18:46.732Z,17.39
2022-10-29T20:21:15.386Z,17.40
2022-10-29T20:23:44.593Z,17.44
2022-10-29T20:26:12.830Z,17.33
2022-10-29T20:28:40.772Z,17.31
2022-10-29T20:31:30.178Z,17.25
2022-10-29T20:34:00.714Z,17.06
2022-10-29T20:36:30.681Z,17.17
2022-10-29T20:38:59.175Z,16.95
2022-10-29T20:41:27.400Z,17.03
2022-10-29T20:43:56.742Z,17.09
2022-10-29T20:46:26.729Z,17.13
2022-10-29T20:48:54.573Z,17.18
2022-10-29T20:51:23.157Z,16.74
2022-10-29T20:53:51.501Z,16.61
2022-10-29T20:56:19.608Z,16.57
2022-10-29T20:58:47.458Z,16.74
2022-10-29T21:01:17.225Z,16.77
2022-10-29T21:03:46.689Z,16.91
2022-10-29T21:06:17.938Z,16.97
2022-10-29T21:08:46.134Z,16.65
2022-10-29T21:11:15.083Z,16.60
2022-10-29T21:13:42.971Z,16.55
2022-10-29T21:16:17.316Z,16.61
2022-10-29T21:18:48.913Z,16.64
2022-10-29T21:21:17.252Z,16.88
2022-10-29T21:23:45.163Z,16.91
2022-10-29T21:26:15.048Z,17.01
2022-10-29T21:28:45.421Z,17.04
2022-10-29T21:31:13.339Z,17.10
2022-10-29T21:33:41.111Z,17.12
2022-10-29T21:36:12.941Z,17.15
2022-10-29T21:38:41.023Z,17.21
2022-10-29T21:41:09.155Z,17.19
2022-10-29T21:43:37.146Z,17.25
2022-10-29T21:46:05.064Z,17.29
2022-10-29T21:48:32.985Z,17.32
2022-10-29T21:51:02.763Z,17.32
2022-10-29T21:53:32.475Z,17.32
2022-10-29T21:56:01.497Z,17.30
2022-10-29T21:58:30.660Z,17.26
2022-10-29T22:01:05.892Z,17.26
2022-10-29T22:03:34.049Z,17.23
2022-10-29T22:06:03.072Z,17.19
2022-10-29T22:08:32.091Z,17.22
2022-10-29T22:11:00.870Z,17.18
2022-10-29T22:13:29.173Z,17.05
2022-10-29T22:15:57.276Z,16.64
2022-10-29T22:18:26.053Z,16.61
2022-10-29T22:21:03.987Z,16.64
2022-10-29T22:23:33.122Z,16.68
2022-10-29T22:26:00.889Z,16.39
2022-10-29T22:28:28.912Z,16.40
2022-10-29T22:31:00.957Z,16.30
2022-10-29T22:33:29.156Z,16.48
2022-10-29T22:35:57.301Z,16.55
2022-10-29T22:38:25.075Z,16.61
2022-10-29T22:40:54.237Z,16.56
2022-10-29T22:43:21.924Z,16.11
2022-10-29T22:45:49.666Z,16.04
2022-10-29T22:48:17.446Z,16.05
2022-10-29T22:50:45.328Z,15.94
2022-10-29T22:53:13.153Z,16.03
2022-10-29T22:55:40.911Z,15.76
2022-10-29T22:58:10.101Z,15.71
2022-10-29T23:00:37.986Z,15.90
2022-10-29T23:03:05.695Z,16.06
2022-10-29T23:05:33.448Z,16.04
2022-10-29T23:08:01.307Z,16.10
2022-10-29T23:10:29.247Z,16.12
2022-10-29T23:12:57.023Z,16.22
2022-10-29T23:15:26.188Z,16.35
2022-10-29T23:17:56.723Z,16.21
2022-10-29T23:20:24.663Z,16.13
2022-10-29T23:22:53.261Z,16.12
2022-10-29T23:25:20.998Z,16.04
2022-10-29T23:27:48.727Z,15.95
2022-10-29T23:30:16.562Z,16.17
2022-10-29T23:32:45.669Z,16.18
2022-10-29T23:35:13.487Z,16.11
2022-10-29T23:37:41.356Z,16.24
2022-10-29T23:40:10.548Z,16.41
2022-10-29T23:42:38.391Z,16.30
2022-10-29T23:45:07.968Z,16.21
2022-10-29T23:47:38.188Z,16.24
2022-10-29T23:50:08.607Z,16.18
2022-10-29T23:52:36.508Z,16.36
2022-10-29T23:55:04.403Z,16.42
2022-10-29T23:57:32.426Z,16.47
